Time;durP1;ratioP1;P1;durP2;ratioP2;P2;SDS_P1;SDS_P2;PMS_P1;PMS_P2;Temp;Humidity;BMP_temperature;BMP_pressure;BME280_temperature;BME280_humidity;BME280_pressure;Samples;Min_cycle;Max_cycle;Signal;HPM_P1;HPM_P2
2021/12/19 00:00:13;;;;;;;;;;;8.00;89.00;;;;;;5017174;28;19913;-86
2021/12/19 00:10:51;;;;;;;;;;;8.10;88.90;;;;;;5044254;28;19928;-85
2021/12/19 00:13:18;;;;;;;;;;;8.00;88.80;;;;;;5036029;28;19913;-87
2021/12/19 00:15:43;;;;;;;;;;;8.10;88.60;;;;;;5054435;28;19928;-87
2021/12/19 00:18:10;;;;;;;;;;;8.10;88.80;;;;;;5017015;28;19917;-87
2021/12/19 00:20:35;;;;;;;;;;;8.10;88.80;;;;;;5019971;28;19913;-87
2021/12/19 00:23:01;;;;;;;;;;;8.10;89.00;;;;;;5042803;28;20364;-88
2021/12/19 00:25:26;;;;;;;;;;;8.10;88.80;;;;;;5024625;28;19914;-87
2021/12/19 00:27:54;;;;;;;;;;;8.10;88.90;;;;;;5037417;28;19970;-87
2021/12/19 00:30:20;;;;;;;;;;;8.10;88.60;;;;;;5034157;28;19913;-87
2021/12/19 00:32:45;;;;;;;;;;;8.10;88.60;;;;;;5030428;28;19932;-86
2021/12/19 00:35:11;;;;;;;;;;;8.10;88.40;;;;;;5026865;28;19909;-87
2021/12/19 00:37:36;;;;;;;;;;;8.10;88.60;;;;;;5055940;28;19975;-87
2021/12/19 00:40:02;;;;;;;;;;;8.10;88.70;;;;;;5037354;28;19924;-87
2021/12/19 00:42:29;;;;;;;;;;;8.10;88.70;;;;;;5020416;28;19913;-87
2021/12/19 00:44:57;;;;;;;;;;;8.10;88.50;;;;;;5018264;28;19924;-86
2021/12/19 00:47:23;;;;;;;;;;;8.10;88.40;;;;;;5017248;28;19967;-87
2021/12/19 00:49:48;;;;;;;;;;;8.10;88.50;;;;;;5029612;28;19913;-86
2021/12/19 00:52:14;;;;;;;;;;;8.00;88.60;;;;;;5036709;28;20395;-86
2021/12/19 00:54:39;;;;;;;;;;;8.00;88.80;;;;;;5026237;28;19948;-87
2021/12/19 00:57:05;;;;;;;;;;;8.00;88.60;;;;;;5016013;28;19913;-86
2021/12/19 00:59:30;;;;;;;;;;;7.90;88.70;;;;;;5034481;28;19910;-86
2021/12/19 01:01:56;;;;;;;;;;;8.00;88.60;;;;;;5035160;28;20498;-86
2021/12/19 01:04:21;;;;;;;;;;;8.00;88.50;;;;;;5017187;28;19963;-86
2021/12/19 01:06:47;;;;;;;;;;;8.00;87.90;;;;;;5016779;28;20055;-86
2021/12/19 01:09:13;;;;;;;;;;;8.00;87.70;;;;;;5009014;28;19913;-87
2021/12/19 01:11:41;;;;;;;;;;;8.00;88.20;;;;;;5017957;28;19914;-87
2021/12/19 01:14:07;;;;;;;;;;;8.00;87.90;;;;;;5025138;28;19921;-87
2021/12/19 01:16:33;;;;;;;;;;;8.00;88.10;;;;;;5035173;28;19917;-86
2021/12/19 01:18:58;;;;;;;;;;;8.00;88.30;;;;;;5015602;28;19925;-87
2021/12/19 01:21:24;;;;;;;;;;;8.00;88.40;;;;;;5025710;28;20360;-87
2021/12/19 01:23:51;;;;;;;;;;;8.10;88.40;;;;;;5028223;28;19924;-87
2021/12/19 01:26:17;;;;;;;;;;;8.10;88.30;;;;;;5005710;28;20268;-87
2021/12/19 01:28:43;;;;;;;;;;;8.00;87.70;;;;;;5006050;28;19916;-87
2021/12/19 01:31:09;;;;;;;;;;;8.00;87.90;;;;;;5004852;28;19913;-87
2021/12/19 01:33:35;;;;;;;;;;;7.90;88.40;;;;;;5040537;28;19932;-88
2021/12/19 01:36:01;;;;;;;;;;;8.00;88.10;;;;;;5020041;28;19933;-87
2021/12/19 01:38:26;;;;;;;;;;;8.00;88.20;;;;;;5011828;28;19929;-87
2021/12/19 01:40:52;;;;;;;;;;;7.90;88.30;;;;;;5009267;28;19913;-87
2021/12/19 01:43:20;;;;;;;;;;;7.80;88.40;;;;;;5015784;28;20004;-86
2021/12/19 01:45:46;;;;;;;;;;;7.80;88.70;;;;;;5015858;28;20431;-88
2021/12/19 01:48:12;;;;;;;;;;;7.80;89.00;;;;;;5015391;28;19960;-86
2021/12/19 01:50:38;;;;;;;;;;;7.80;88.90;;;;;;5015562;28;19913;-88
2021/12/19 01:53:04;;;;;;;;;;;7.80;88.80;;;;;;5032203;28;20056;-87
2021/12/19 01:55:30;;;;;;;;;;;7.70;89.10;;;;;;5015668;28;19909;-87
2021/12/19 01:57:56;;;;;;;;;;;7.80;89.30;;;;;;5019525;28;19937;-87
2021/12/19 02:00:21;;;;;;;;;;;7.90;89.30;;;;;;5034986;28;19897;-87
2021/12/19 02:02:47;;;;;;;;;;;7.90;89.00;;;;;;5011242;28;19953;-87
2021/12/19 02:05:12;;;;;;;;;;;7.90;89.20;;;;;;5011647;28;19913;-87
2021/12/19 02:07:38;;;;;;;;;;;7.80;89.10;;;;;;5033439;28;20010;-87
2021/12/19 02:10:03;;;;;;;;;;;7.90;89.30;;;;;;5014494;28;19913;-87
2021/12/19 02:12:29;;;;;;;;;;;7.90;89.40;;;;;;5011903;28;19983;-88
2021/12/19 02:14:54;;;;;;;;;;;7.90;89.30;;;;;;5032466;28;19909;-87
2021/12/19 02:17:20;;;;;;;;;;;7.90;89.10;;;;;;5032879;28;20012;-86
2021/12/19 02:19:45;;;;;;;;;;;8.00;88.80;;;;;;5032687;28;19916;-87
2021/12/19 02:22:16;;;;;;;;;;;8.10;88.90;;;;;;5032721;28;19975;-86
2021/12/19 02:24:41;;;;;;;;;;;8.10;88.50;;;;;;5032653;28;19964;-87
2021/12/19 02:27:07;;;;;;;;;;;8.00;88.50;;;;;;5014531;28;20041;-87
2021/12/19 02:29:32;;;;;;;;;;;8.00;88.20;;;;;;5012774;28;19917;-86
2021/12/19 02:31:58;;;;;;;;;;;8.00;88.40;;;;;;5014328;28;19978;-86
2021/12/19 02:34:27;;;;;;;;;;;8.00;88.60;;;;;;5032080;28;19920;-87
2021/12/19 02:37:03;;;;;;;;;;;7.90;88.70;;;;;;5030404;28;20514;-86
2021/12/19 02:40:06;;;;;;;;;;;8.00;88.80;;;;;;5030231;28;19909;-87
2021/12/19 02:48:10;;;;;;;;;;;8.10;88.50;;;;;;5032392;28;20274;-86
2021/12/19 02:50:37;;;;;;;;;;;8.00;88.00;;;;;;5022586;28;19967;-86
2021/12/19 02:53:02;;;;;;;;;;;8.00;88.10;;;;;;5020419;28;19929;-87
2021/12/19 02:55:28;;;;;;;;;;;8.00;88.10;;;;;;5040153;28;19921;-87
2021/12/19 02:57:53;;;;;;;;;;;7.80;88.20;;;;;;5015870;28;19917;-87
2021/12/19 03:00:24;;;;;;;;;;;7.80;88.40;;;;;;5014430;28;19996;-87
2021/12/19 03:02:50;;;;;;;;;;;7.80;88.40;;;;;;5007637;28;19983;-87
2021/12/19 03:05:16;;;;;;;;;;;7.80;88.10;;;;;;5027194;28;19910;-86
2021/12/19 03:07:43;;;;;;;;;;;7.60;87.70;;;;;;5015622;28;19924;-88
2021/12/19 03:18:16;;;;;;;;;;;7.40;88.00;;;;;;5034537;28;19932;-87
2021/12/19 03:20:42;;;;;;;;;;;7.40;87.20;;;;;;5020428;28;19897;-87
2021/12/19 03:23:09;;;;;;;;;;;7.30;87.30;;;;;;5030538;28;19940;-86
2021/12/19 03:25:34;;;;;;;;;;;7.20;87.30;;;;;;5033012;28;19916;-86
2021/12/19 03:28:01;;;;;;;;;;;7.10;87.80;;;;;;5016358;28;20291;-86
2021/12/19 03:30:27;;;;;;;;;;;7.20;87.40;;;;;;5006125;28;19913;-86
2021/12/19 03:32:52;;;;;;;;;;;7.10;86.90;;;;;;5021627;28;19921;-86
2021/12/19 03:35:18;;;;;;;;;;;7.00;87.40;;;;;;5038920;28;19936;-86
2021/12/19 03:37:44;;;;;;;;;;;7.00;87.50;;;;;;5016883;28;19917;-86
2021/12/19 03:40:12;;;;;;;;;;;7.00;88.10;;;;;;5014996;28;19917;-86
2021/12/19 03:42:40;;;;;;;;;;;7.00;88.10;;;;;;5033520;28;19913;-85
2021/12/19 03:45:07;;;;;;;;;;;7.00;88.00;;;;;;5013003;28;19910;-86
2021/12/19 03:47:32;;;;;;;;;;;7.10;88.10;;;;;;5031688;28;19917;-86
2021/12/19 03:49:58;;;;;;;;;;;7.10;87.80;;;;;;5019046;28;20363;-86
2021/12/19 03:52:23;;;;;;;;;;;7.10;88.10;;;;;;5043937;28;19978;-87
2021/12/19 03:54:49;;;;;;;;;;;7.30;88.00;;;;;;5019190;28;19913;-85
2021/12/19 03:57:14;;;;;;;;;;;7.30;87.50;;;;;;5018547;28;20283;-85
2021/12/19 03:59:41;;;;;;;;;;;7.30;87.40;;;;;;5018057;28;19917;-85
2021/12/19 04:02:07;;;;;;;;;;;7.30;87.60;;;;;;5035743;28;19917;-86
2021/12/19 04:04:36;;;;;;;;;;;7.30;87.80;;;;;;5036219;28;19940;-86
2021/12/19 04:07:02;;;;;;;;;;;7.30;87.60;;;;;;5019068;28;19919;-86
2021/12/19 04:09:28;;;;;;;;;;;7.30;87.70;;;;;;5024418;28;19940;-86
2021/12/19 04:11:55;;;;;;;;;;;7.30;87.90;;;;;;5035523;28;20004;-86
2021/12/19 04:14:21;;;;;;;;;;;7.40;87.80;;;;;;5035421;28;19920;-86
2021/12/19 04:16:46;;;;;;;;;;;7.40;87.60;;;;;;5018634;28;19921;-86
2021/12/19 04:19:12;;;;;;;;;;;7.40;87.90;;;;;;5018713;28;20363;-86
2021/12/19 04:21:38;;;;;;;;;;;7.20;87.70;;;;;;5018327;28;19936;-86
2021/12/19 04:24:03;;;;;;;;;;;7.20;88.00;;;;;;5017861;28;20450;-86
2021/12/19 04:26:29;;;;;;;;;;;7.10;88.00;;;;;;5018514;28;19917;-86
2021/12/19 04:28:54;;;;;;;;;;;7.00;88.20;;;;;;5018545;28;20029;-86
2021/12/19 04:31:20;;;;;;;;;;;6.90;88.40;;;;;;5036868;28;19913;-86
2021/12/19 04:33:45;;;;;;;;;;;7.00;88.60;;;;;;5018190;28;19979;-86
2021/12/19 04:36:17;;;;;;;;;;;7.10;88.40;;;;;;5018953;28;19929;-86
2021/12/19 04:57:50;;;;;;;;;;;7.40;88.10;;;;;;5037500;28;19921;-86
2021/12/19 05:00:14;;;;;;;;;;;7.30;88.00;;;;;;5031690;28;20495;-86
2021/12/19 05:02:58;;;;;;;;;;;7.30;88.10;;;;;;5036445;28;20359;-85
2021/12/19 05:05:56;;;;;;;;;;;7.30;88.10;;;;;;5038539;28;19910;-85
2021/12/19 05:16:49;;;;;;;;;;;7.30;88.20;;;;;;4983939;28;19932;-85
2021/12/19 05:21:43;;;;;;;;;;;7.40;88.20;;;;;;5040682;28;19913;-87
2021/12/19 05:26:43;;;;;;;;;;;7.40;88.50;;;;;;5039778;28;19917;-86
2021/12/19 05:29:09;;;;;;;;;;;7.30;88.40;;;;;;5017528;28;19925;-86
2021/12/19 05:31:35;;;;;;;;;;;7.50;88.30;;;;;;5039812;28;19909;-87
2021/12/19 05:34:00;;;;;;;;;;;7.40;88.60;;;;;;5018860;28;19932;-87
2021/12/19 05:47:07;;;;;;;;;;;7.40;88.50;;;;;;5033077;28;20032;-86
2021/12/19 05:49:32;;;;;;;;;;;7.40;88.20;;;;;;5023251;28;20012;-87
2021/12/19 05:51:58;;;;;;;;;;;7.30;88.20;;;;;;5016422;28;19921;-86
2021/12/19 05:54:24;;;;;;;;;;;7.30;88.20;;;;;;5016530;28;19951;-87
2021/12/19 05:56:50;;;;;;;;;;;7.30;88.60;;;;;;5034184;28;19920;-86
2021/12/19 05:59:16;;;;;;;;;;;7.20;88.50;;;;;;5015795;28;19909;-87
2021/12/19 06:01:43;;;;;;;;;;;7.20;88.30;;;;;;5033304;28;20005;-86
2021/12/19 06:04:18;;;;;;;;;;;7.30;88.40;;;;;;5016231;28;19972;-86
2021/12/19 06:06:46;;;;;;;;;;;7.30;88.40;;;;;;5034285;28;19924;-87
2021/12/19 06:09:11;;;;;;;;;;;7.30;88.20;;;;;;5018798;28;20375;-85
2021/12/19 06:11:37;;;;;;;;;;;7.30;88.10;;;;;;5026873;28;19932;-86
2021/12/19 06:14:02;;;;;;;;;;;7.20;88.00;;;;;;5017083;28;20027;-86
2021/12/19 06:16:28;;;;;;;;;;;7.30;87.80;;;;;;5021587;28;19921;-86
2021/12/19 06:18:53;;;;;;;;;;;7.30;87.70;;;;;;5034076;28;19913;-86
2021/12/19 06:21:19;;;;;;;;;;;7.50;87.40;;;;;;5018000;28;19917;-86
2021/12/19 06:23:44;;;;;;;;;;;7.40;87.30;;;;;;5017641;28;19913;-86
2021/12/19 06:26:11;;;;;;;;;;;7.30;87.20;;;;;;5017219;28;20004;-87
2021/12/19 06:28:36;;;;;;;;;;;7.30;87.40;;;;;;5033867;28;19909;-86
2021/12/19 06:31:02;;;;;;;;;;;7.30;86.90;;;;;;5024210;28;19921;-88
2021/12/19 06:33:27;;;;;;;;;;;7.30;86.70;;;;;;5016584;28;19913;-86
2021/12/19 06:35:54;;;;;;;;;;;7.20;86.80;;;;;;5015529;28;19932;-86
2021/12/19 06:38:20;;;;;;;;;;;7.10;87.40;;;;;;5016226;28;19909;-86
2021/12/19 06:40:45;;;;;;;;;;;7.10;87.30;;;;;;5014942;28;19909;-86
2021/12/19 06:43:11;;;;;;;;;;;7.20;87.50;;;;;;5016945;28;19993;-86
2021/12/19 06:45:36;;;;;;;;;;;7.20;87.50;;;;;;5018884;28;19929;-86
2021/12/19 06:48:02;;;;;;;;;;;7.20;87.70;;;;;;5012785;28;19924;-86
2021/12/19 06:50:27;;;;;;;;;;;7.10;87.20;;;;;;5014870;28;19913;-86
2021/12/19 06:52:53;;;;;;;;;;;7.00;87.30;;;;;;5015033;28;20536;-86
2021/12/19 06:55:19;;;;;;;;;;;7.00;87.60;;;;;;5014905;28;20320;-87
2021/12/19 06:57:45;;;;;;;;;;;7.00;87.70;;;;;;5015932;28;19917;-86
2021/12/19 07:00:12;;;;;;;;;;;7.10;87.80;;;;;;5033170;28;19913;-86
2021/12/19 07:02:38;;;;;;;;;;;7.10;87.20;;;;;;5014939;28;19912;-86
2021/12/19 07:05:03;;;;;;;;;;;7.10;87.40;;;;;;5014751;28;19909;-85
2021/12/19 07:07:29;;;;;;;;;;;7.10;87.60;;;;;;5015433;28;19917;-86
2021/12/19 07:09:55;;;;;;;;;;;7.10;87.70;;;;;;5014454;28;19909;-87
2021/12/19 07:12:26;;;;;;;;;;;7.10;88.10;;;;;;5014317;28;19913;-86
2021/12/19 07:14:51;;;;;;;;;;;7.10;87.90;;;;;;5014148;28;20012;-86
2021/12/19 07:17:17;;;;;;;;;;;7.10;87.60;;;;;;5013794;28;20363;-86
2021/12/19 07:19:42;;;;;;;;;;;7.10;87.50;;;;;;5015815;28;20002;-86
2021/12/19 07:22:10;;;;;;;;;;;7.10;87.40;;;;;;5019461;28;19935;-86
2021/12/19 07:24:36;;;;;;;;;;;7.10;87.60;;;;;;5018060;28;20367;-84
2021/12/19 07:27:01;;;;;;;;;;;7.10;87.80;;;;;;5026591;28;19932;-85
2021/12/19 07:29:30;;;;;;;;;;;7.10;88.00;;;;;;5035848;28;19925;-84
2021/12/19 07:31:55;;;;;;;;;;;7.20;87.90;;;;;;5036873;28;19914;-85
2021/12/19 07:34:28;;;;;;;;;;;7.20;87.80;;;;;;5021081;28;20016;-86
2021/12/19 07:37:01;;;;;;;;;;;7.20;87.70;;;;;;5016437;28;19964;-85
2021/12/19 07:40:20;;;;;;;;;;;7.10;87.50;;;;;;5019414;28;19913;-85
2021/12/19 07:42:36;;;;;;;;;;;7.30;87.80;;;;;;5035813;28;20051;-85
2021/12/19 07:45:03;;;;;;;;;;;7.30;87.60;;;;;;5040781;28;20411;-84
2021/12/19 07:47:34;;;;;;;;;;;7.30;87.50;;;;;;5028094;28;20066;-87
2021/12/19 07:49:59;;;;;;;;;;;7.20;87.40;;;;;;5016201;28;20011;-84
2021/12/19 07:52:25;;;;;;;;;;;7.30;87.70;;;;;;5016624;28;19948;-85
2021/12/19 07:54:50;;;;;;;;;;;7.30;87.50;;;;;;5024159;28;20008;-85
2021/12/19 07:57:16;;;;;;;;;;;7.20;88.00;;;;;;5028529;28;19914;-84
2021/12/19 07:59:41;;;;;;;;;;;7.20;88.10;;;;;;5025404;28;19999;-84
2021/12/19 08:02:07;;;;;;;;;;;7.20;88.00;;;;;;5031776;28;19913;-84
2021/12/19 08:04:33;;;;;;;;;;;7.20;88.00;;;;;;5022329;28;20291;-85
2021/12/19 08:06:58;;;;;;;;;;;7.20;88.20;;;;;;5021526;28;19929;-86
2021/12/19 08:09:37;;;;;;;;;;;7.30;88.30;;;;;;5009607;28;19917;-84
2021/12/19 08:12:04;;;;;;;;;;;7.30;88.20;;;;;;5020492;28;19913;-85
2021/12/19 08:14:29;;;;;;;;;;;7.30;88.60;;;;;;5021060;28;19945;-85
2021/12/19 08:16:55;;;;;;;;;;;7.30;88.70;;;;;;5034922;28;20351;-84
2021/12/19 08:19:20;;;;;;;;;;;7.30;89.00;;;;;;5019102;28;20017;-85
2021/12/19 08:21:46;;;;;;;;;;;7.40;88.50;;;;;;5019248;28;19968;-86
2021/12/19 08:24:13;;;;;;;;;;;7.40;88.50;;;;;;5020082;28;19909;-87
2021/12/19 08:26:39;;;;;;;;;;;7.40;88.70;;;;;;5019386;28;20291;-85
2021/12/19 08:29:05;;;;;;;;;;;7.50;88.50;;;;;;5019386;28;19935;-85
2021/12/19 08:31:33;;;;;;;;;;;7.50;88.60;;;;;;5018350;28;20387;-85
2021/12/19 08:33:59;;;;;;;;;;;7.50;88.60;;;;;;5032862;28;19922;-85
2021/12/19 08:36:25;;;;;;;;;;;7.60;88.70;;;;;;5013464;28;20346;-85
2021/12/19 08:38:50;;;;;;;;;;;7.60;88.40;;;;;;5018229;28;19917;-85
2021/12/19 08:41:16;;;;;;;;;;;7.60;88.30;;;;;;5009368;28;19975;-89
2021/12/19 08:43:41;;;;;;;;;;;7.50;88.40;;;;;;5017486;28;19939;-84
2021/12/19 08:46:09;;;;;;;;;;;7.60;88.50;;;;;;5018746;28;20192;-85
2021/12/19 08:48:35;;;;;;;;;;;7.50;88.20;;;;;;5000404;28;19910;-86
2021/12/19 08:51:00;;;;;;;;;;;7.50;88.50;;;;;;5029162;28;19932;-85
2021/12/19 08:53:26;;;;;;;;;;;7.60;88.40;;;;;;5024114;28;20443;-85
2021/12/19 08:55:51;;;;;;;;;;;7.60;88.10;;;;;;5018175;28;20013;-85
2021/12/19 08:58:17;;;;;;;;;;;7.60;88.00;;;;;;5012067;28;19924;-85
2021/12/19 09:00:42;;;;;;;;;;;7.60;87.80;;;;;;5035714;28;20341;-86
2021/12/19 09:03:09;;;;;;;;;;;7.60;88.40;;;;;;5017642;28;19913;-87
2021/12/19 09:05:34;;;;;;;;;;;7.60;88.50;;;;;;5032761;28;19921;-85
2021/12/19 09:08:00;;;;;;;;;;;7.60;88.40;;;;;;5018498;28;19927;-85
2021/12/19 09:10:26;;;;;;;;;;;7.60;88.80;;;;;;5025762;28;19917;-86
2021/12/19 09:12:51;;;;;;;;;;;7.70;88.60;;;;;;5032538;28;19944;-86
2021/12/19 09:15:17;;;;;;;;;;;7.70;87.70;;;;;;5037814;28;20379;-86
2021/12/19 09:17:43;;;;;;;;;;;7.60;87.70;;;;;;5033974;28;20364;-86
2021/12/19 09:20:09;;;;;;;;;;;7.60;87.60;;;;;;5041177;28;19917;-86
2021/12/19 09:22:34;;;;;;;;;;;7.50;87.70;;;;;;5027532;28;19913;-86
2021/12/19 09:25:00;;;;;;;;;;;7.50;88.00;;;;;;5039719;28;20505;-86
2021/12/19 09:27:26;;;;;;;;;;;7.60;88.30;;;;;;5037930;28;20291;-86
2021/12/19 09:29:52;;;;;;;;;;;7.70;87.80;;;;;;5017452;28;19943;-86
2021/12/19 09:32:17;;;;;;;;;;;7.70;87.70;;;;;;5019274;28;19913;-86
2021/12/19 09:34:43;;;;;;;;;;;7.80;87.10;;;;;;5019154;28;20323;-86
2021/12/19 09:37:09;;;;;;;;;;;7.80;87.10;;;;;;5018698;28;19913;-85
2021/12/19 09:39:34;;;;;;;;;;;7.60;87.00;;;;;;5037952;28;19924;-84
2021/12/19 09:42:06;;;;;;;;;;;7.70;87.70;;;;;;5022061;28;19939;-84
2021/12/19 09:44:32;;;;;;;;;;;7.70;87.50;;;;;;5044226;28;19917;-85
2021/12/19 09:46:58;;;;;;;;;;;7.80;87.70;;;;;;5024980;28;20385;-85
2021/12/19 09:49:23;;;;;;;;;;;7.80;87.30;;;;;;5024184;28;19960;-86
2021/12/19 09:51:49;;;;;;;;;;;7.80;87.30;;;;;;5021898;28;19913;-85
2021/12/19 09:54:15;;;;;;;;;;;7.70;87.10;;;;;;5022555;28;19914;-85
2021/12/19 09:56:42;;;;;;;;;;;7.80;87.30;;;;;;5038510;28;19917;-86
2021/12/19 09:59:18;;;;;;;;;;;7.80;87.40;;;;;;5020114;28;19921;-84
2021/12/19 10:01:45;;;;;;;;;;;7.80;87.40;;;;;;5039546;28;20004;-84
2021/12/19 10:04:29;;;;;;;;;;;7.70;87.40;;;;;;5108385;27;1910630;-86
2021/12/19 10:07:03;;;;;;;;;;;7.70;87.80;;;;;;5113204;28;19919;-85
2021/12/19 10:09:29;;;;;;;;;;;7.60;87.60;;;;;;5109218;28;19912;-85
2021/12/19 10:12:12;;;;;;;;;;;7.60;87.10;;;;;;5123169;28;19923;-86
2021/12/19 10:14:38;;;;;;;;;;;7.50;87.70;;;;;;5127998;28;20267;-85
2021/12/19 10:17:05;;;;;;;;;;;7.30;88.10;;;;;;5100898;28;19918;-86
2021/12/19 10:19:41;;;;;;;;;;;7.40;88.60;;;;;;5101259;28;19923;-85
2021/12/19 10:22:06;;;;;;;;;;;7.30;87.80;;;;;;5119579;28;19920;-84
2021/12/19 10:24:32;;;;;;;;;;;7.30;88.20;;;;;;5119310;28;19938;-85
2021/12/19 10:26:58;;;;;;;;;;;7.30;87.80;;;;;;5135902;28;19912;-84
2021/12/19 10:29:43;;;;;;;;;;;7.30;86.80;;;;;;5124100;28;19927;-84
2021/12/19 10:32:09;;;;;;;;;;;7.30;86.60;;;;;;5132487;28;19919;-86
2021/12/19 10:34:34;;;;;;;;;;;7.50;86.40;;;;;;5118659;28;19912;-85
2021/12/19 10:37:00;;;;;;;;;;;7.40;86.40;;;;;;5130177;28;20276;-85
2021/12/19 10:39:34;;;;;;;;;;;7.40;86.00;;;;;;5136470;28;19911;-87
2021/12/19 10:42:00;;;;;;;;;;;7.50;85.40;;;;;;5129729;28;19947;-86
2021/12/19 10:47:25;;;;;;;;;;;7.50;85.30;;;;;;5130656;28;19918;-84
2021/12/19 10:49:50;;;;;;;;;;;7.60;85.80;;;;;;5125555;27;19956;-85
2021/12/19 10:52:29;;;;;;;;;;;7.60;85.60;;;;;;5119800;28;19919;-86
2021/12/19 10:55:00;;;;;;;;;;;7.70;85.10;;;;;;5125191;28;19911;-84
2021/12/19 10:57:44;;;;;;;;;;;7.70;85.30;;;;;;5113291;28;19926;-88
2021/12/19 11:00:12;;;;;;;;;;;7.70;84.80;;;;;;5127111;28;19912;-86
2021/12/19 11:02:42;;;;;;;;;;;7.70;85.10;;;;;;5091669;28;19912;-90
2021/12/19 11:05:27;;;;;;;;;;;7.80;84.70;;;;;;5112312;28;19916;-90
2021/12/19 11:08:06;;;;;;;;;;;7.80;84.90;;;;;;5099689;28;20421;-88
2021/12/19 11:10:32;;;;;;;;;;;8.00;84.20;;;;;;5125735;22;20015;-88
2021/12/19 11:13:05;;;;;;;;;;;8.10;84.80;;;;;;5051575;28;19960;-87
2021/12/19 11:15:30;;;;;;;;;;;8.10;84.90;;;;;;5040323;28;19916;-84
2021/12/19 11:17:56;;;;;;;;;;;8.10;84.80;;;;;;5055016;28;20384;-85
2021/12/19 11:20:21;;;;;;;;;;;8.10;84.90;;;;;;5041770;28;19908;-84
2021/12/19 11:22:47;;;;;;;;;;;8.10;84.40;;;;;;5041317;28;19991;-86
2021/12/19 11:25:12;;;;;;;;;;;8.00;84.60;;;;;;5043115;28;19908;-85
2021/12/19 11:27:39;;;;;;;;;;;7.90;85.10;;;;;;5057342;28;19925;-84
2021/12/19 11:30:04;;;;;;;;;;;7.80;85.80;;;;;;5048043;28;19912;-86
2021/12/19 11:33:02;;;;;;;;;;;7.80;85.90;;;;;;5042289;28;20236;-84
2021/12/19 11:35:31;;;;;;;;;;;7.80;86.00;;;;;;4970784;28;19917;-84
2021/12/19 11:37:57;;;;;;;;;;;7.90;85.60;;;;;;5020220;28;19976;-84
2021/12/19 11:40:24;;;;;;;;;;;7.80;85.80;;;;;;5035473;28;19971;-83
2021/12/19 11:42:59;;;;;;;;;;;7.70;85.00;;;;;;5037210;28;19923;-85
2021/12/19 11:45:46;;;;;;;;;;;7.60;85.80;;;;;;5022849;28;20405;-82
2021/12/19 11:48:17;;;;;;;;;;;7.60;86.10;;;;;;5020484;28;19921;-83
2021/12/19 11:50:45;;;;;;;;;;;7.80;85.30;;;;;;5033382;28;20295;-84
2021/12/19 11:53:11;;;;;;;;;;;7.80;85.20;;;;;;5023851;28;20415;-84
2021/12/19 11:55:41;;;;;;;;;;;7.90;85.20;;;;;;5030401;28;19913;-86
2021/12/19 11:58:12;;;;;;;;;;;7.90;84.70;;;;;;5042685;28;19924;-85
2021/12/19 12:00:40;;;;;;;;;;;7.80;85.00;;;;;;5045311;28;19927;-87
2021/12/19 12:03:12;;;;;;;;;;;7.80;85.10;;;;;;5040170;28;20415;-85
2021/12/19 12:05:41;;;;;;;;;;;7.80;84.90;;;;;;5016011;28;19921;-85
2021/12/19 12:08:07;;;;;;;;;;;7.80;85.20;;;;;;5019552;28;20055;-83
2021/12/19 12:10:52;;;;;;;;;;;7.90;85.20;;;;;;5021378;28;19913;-83
2021/12/19 12:13:21;;;;;;;;;;;7.90;85.60;;;;;;5019678;28;19917;-83
2021/12/19 12:15:50;;;;;;;;;;;8.00;86.20;;;;;;5017976;28;19909;-84
2021/12/19 12:18:30;;;;;;;;;;;8.20;85.30;;;;;;5042483;28;19976;-84
2021/12/19 12:20:56;;;;;;;;;;;8.00;85.40;;;;;;5055023;28;19913;-85
2021/12/19 12:23:25;;;;;;;;;;;8.00;85.40;;;;;;5016844;28;19913;-85
2021/12/19 12:25:51;;;;;;;;;;;7.80;85.40;;;;;;5017085;28;19919;-85
2021/12/19 12:28:17;;;;;;;;;;;7.80;85.90;;;;;;5021449;28;20326;-84
2021/12/19 12:30:45;;;;;;;;;;;7.70;86.00;;;;;;5023439;28;19927;-85
2021/12/19 12:33:14;;;;;;;;;;;7.80;85.80;;;;;;5030775;28;19913;-85
2021/12/19 12:35:41;;;;;;;;;;;7.90;85.50;;;;;;5035554;28;19915;-85
2021/12/19 12:38:07;;;;;;;;;;;7.90;85.40;;;;;;5051083;28;19944;-84
2021/12/19 12:40:46;;;;;;;;;;;7.90;86.00;;;;;;5045807;28;19914;-85
2021/12/19 12:43:12;;;;;;;;;;;7.90;85.70;;;;;;5042877;28;19921;-85
2021/12/19 12:45:49;;;;;;;;;;;8.00;86.10;;;;;;5015988;28;20272;-85
2021/12/19 12:48:30;;;;;;;;;;;8.00;84.60;;;;;;5013491;28;19924;-87
2021/12/19 12:50:56;;;;;;;;;;;8.00;85.40;;;;;;5045696;28;19948;-85
2021/12/19 12:53:32;;;;;;;;;;;8.00;85.10;;;;;;5035824;28;19998;-82
2021/12/19 12:56:00;;;;;;;;;;;8.00;85.00;;;;;;5024117;28;19920;-83
2021/12/19 12:58:26;;;;;;;;;;;8.00;84.90;;;;;;5016222;28;19921;-83
2021/12/19 13:01:10;;;;;;;;;;;8.00;84.90;;;;;;5034680;28;19909;-84
2021/12/19 13:03:36;;;;;;;;;;;8.00;85.10;;;;;;5036513;28;19913;-84
2021/12/19 13:06:01;;;;;;;;;;;8.00;85.00;;;;;;5034293;28;20315;-83
2021/12/19 13:08:28;;;;;;;;;;;8.00;84.90;;;;;;5035236;28;20402;-83
2021/12/19 13:10:53;;;;;;;;;;;7.90;84.90;;;;;;5015641;28;20614;-83
2021/12/19 13:13:24;;;;;;;;;;;7.90;85.20;;;;;;5016318;28;19909;-82
2021/12/19 13:15:49;;;;;;;;;;;8.00;85.20;;;;;;5015356;28;19936;-83
2021/12/19 13:18:14;;;;;;;;;;;8.00;84.60;;;;;;5034768;28;20352;-84
2021/12/19 13:20:40;;;;;;;;;;;8.00;84.30;;;;;;5034453;28;20334;-82
2021/12/19 13:23:05;;;;;;;;;;;8.00;84.10;;;;;;5033726;28;19920;-83
2021/12/19 13:25:38;;;;;;;;;;;7.90;84.10;;;;;;5010060;28;19920;-83
2021/12/19 13:28:06;;;;;;;;;;;7.90;84.70;;;;;;5010898;28;20023;-83
2021/12/19 13:30:33;;;;;;;;;;;7.90;84.00;;;;;;5015241;28;19909;-84
2021/12/19 13:33:07;;;;;;;;;;;7.90;84.50;;;;;;5013311;28;19921;-84
2021/12/19 13:35:37;;;;;;;;;;;8.00;84.00;;;;;;5015617;28;20337;-84
2021/12/19 13:38:07;;;;;;;;;;;7.90;84.50;;;;;;5012722;28;20020;-84
2021/12/19 13:40:37;;;;;;;;;;;7.90;84.70;;;;;;5012368;28;19920;-83
2021/12/19 13:43:04;;;;;;;;;;;7.80;85.60;;;;;;5016063;28;20000;-84
2021/12/19 13:45:32;;;;;;;;;;;7.80;85.50;;;;;;5017133;28;19913;-84
2021/12/19 13:47:59;;;;;;;;;;;7.90;85.10;;;;;;5033554;28;19995;-84
2021/12/19 13:50:25;;;;;;;;;;;7.90;84.40;;;;;;5014652;28;19910;-83
2021/12/19 13:52:51;;;;;;;;;;;7.90;85.00;;;;;;5019238;28;19909;-84
2021/12/19 13:55:16;;;;;;;;;;;7.90;85.10;;;;;;5020856;28;19923;-86
2021/12/19 13:57:42;;;;;;;;;;;7.90;85.10;;;;;;5031746;28;20011;-86
2021/12/19 14:00:11;;;;;;;;;;;7.90;84.90;;;;;;5011954;28;20426;-87
2021/12/19 14:02:38;;;;;;;;;;;7.90;85.60;;;;;;5013855;28;19933;-88
2021/12/19 14:05:04;;;;;;;;;;;7.90;85.30;;;;;;5011652;28;19921;-90
2021/12/19 14:07:29;;;;;;;;;;;7.90;85.80;;;;;;5017002;28;20309;-88
2021/12/19 14:10:02;;;;;;;;;;;7.90;85.10;;;;;;5013141;28;19929;-86
2021/12/19 14:12:51;;;;;;;;;;;7.90;85.60;;;;;;5019258;28;19921;-88
2021/12/19 14:15:15;;;;;;;;;;;7.90;85.10;;;;;;5034154;28;19913;-88
2021/12/19 14:17:41;;;;;;;;;;;7.90;85.50;;;;;;5014070;28;20542;-89
2021/12/19 14:20:06;;;;;;;;;;;7.90;85.90;;;;;;5015429;28;19956;-89
2021/12/19 14:22:32;;;;;;;;;;;7.90;86.10;;;;;;5015070;28;19913;-89
2021/12/19 14:24:58;;;;;;;;;;;7.80;85.90;;;;;;5015656;28;19917;-87
2021/12/19 14:27:25;;;;;;;;;;;7.80;86.20;;;;;;5005383;28;19909;-87
2021/12/19 14:29:50;;;;;;;;;;;7.90;85.90;;;;;;5013932;28;19917;-89
2021/12/19 14:32:16;;;;;;;;;;;7.90;85.80;;;;;;5015038;28;19915;-88
2021/12/19 14:34:46;;;;;;;;;;;7.90;86.00;;;;;;5015080;28;20379;-88
2021/12/19 14:37:27;;;;;;;;;;;7.80;85.90;;;;;;5010472;28;19913;-89
2021/12/19 14:40:01;;;;;;;;;;;7.80;85.90;;;;;;5037436;28;19977;-87
2021/12/19 14:42:29;;;;;;;;;;;7.70;86.40;;;;;;5013744;28;20039;-87
2021/12/19 14:44:55;;;;;;;;;;;7.80;86.90;;;;;;5016759;28;19975;-90
2021/12/19 14:47:35;;;;;;;;;;;7.90;86.70;;;;;;5014258;28;19956;-89
2021/12/19 14:50:33;;;;;;;;;;;7.80;86.90;;;;;;5048248;28;19913;-87
2021/12/19 14:52:58;;;;;;;;;;;7.80;86.60;;;;;;5005287;28;20004;-86
2021/12/19 14:55:28;;;;;;;;;;;7.70;86.60;;;;;;5016844;28;19948;-87
2021/12/19 14:57:53;;;;;;;;;;;7.70;87.10;;;;;;5016592;28;20007;-87
2021/12/19 15:00:20;;;;;;;;;;;7.70;87.30;;;;;;5038288;28;19956;-86
2021/12/19 15:02:45;;;;;;;;;;;7.80;87.10;;;;;;5019088;28;19913;-87
2021/12/19 15:05:11;;;;;;;;;;;7.70;87.10;;;;;;5018915;28;20375;-90
2021/12/19 15:07:42;;;;;;;;;;;7.80;87.10;;;;;;5018064;28;19992;-90
2021/12/19 15:10:08;;;;;;;;;;;7.80;87.20;;;;;;5021303;28;19954;-91
2021/12/19 15:12:33;;;;;;;;;;;7.80;87.40;;;;;;5026498;28;19982;-90
2021/12/19 15:14:59;;;;;;;;;;;7.70;87.60;;;;;;5017239;28;19913;-88
2021/12/19 15:17:25;;;;;;;;;;;7.70;87.30;;;;;;5016325;28;19913;-89
2021/12/19 15:19:50;;;;;;;;;;;7.60;87.50;;;;;;5050853;28;19917;-88
2021/12/19 15:22:23;;;;;;;;;;;7.60;87.60;;;;;;5018690;28;19920;-88
2021/12/19 15:24:48;;;;;;;;;;;7.60;88.20;;;;;;5017535;28;19913;-91
2021/12/19 15:27:14;;;;;;;;;;;7.60;88.10;;;;;;5018888;28;20317;-91
2021/12/19 15:29:39;;;;;;;;;;;7.60;88.20;;;;;;5016574;28;20008;-89
2021/12/19 15:32:05;;;;;;;;;;;7.60;88.20;;;;;;5015106;28;19913;-91
2021/12/19 15:34:30;;;;;;;;;;;7.60;88.10;;;;;;5034842;28;20410;-90
2021/12/19 15:36:56;;;;;;;;;;;7.60;88.30;;;;;;5016209;28;19959;-91
2021/12/19 15:39:21;;;;;;;;;;;7.60;88.70;;;;;;5015720;28;19968;-88
2021/12/19 15:41:48;;;;;;;;;;;7.60;89.00;;;;;;5016396;28;19913;-89